Terminal Aerodrome Forecast
Issued by NWS

Home | Current Version | Previous Version | Text Only | Print | Product List | Glossary On
Versions: 1 2 3 4 5 6 7 8 9 10 11 12 13 14 15 16 17 18 19 20 21 22 23 24 25 26 27 28 29
000
FTUS44 KHGX 211921 AAB
TAFCXO
TAF AMD
KCXO 211921Z 2119/2218 20011KT P6SM SCT015 BKN025
     FM212100 21010KT P6SM BKN120
     FM220000 20005KT P6SM SCT100
     FM220300 19004KT 4SM BR SKC
     FM220630 24012G22KT P6SM SCT150
     FM221500 29020G30KT P6SM SCT035=

USA.gov is the U.S. government's official web portal to all federal, state and local government web resources and services.